Terminal Aerodrome Forecast
Issued by NWS Buffalo, NY

Home | Current Version | Previous Version | Text Only | Print | Product List | Glossary On
Versions: 1 2 3 4 5 6 7 8 9 10 11 12 13 14 15 16 17 18 19 20 21 22 23 24 25 26 27 28 29 30
000
FTUS41 KBUF 212100 AAB
TAFBUF
TAF AMD
KBUF 212119Z 2121/2218 02012KT 6SM -SHRA OVC006
     FM220000 02010KT 5SM -DZ OVC004
     FM220600 02010KT 6SM -DZ OVC008
     FM221200 02010KT P6SM OVC012=

USA.gov is the U.S. government's official web portal to all federal, state and local government web resources and services.